URO611 EFHK-EDDP
Flight info
| Callsign | URO611 |
|---|---|
| Flight time | 1h 53m |
| Altitude | 38000 |
| Route | NUNTO Y369 REKDO DCT KOSKA DCT UNGAV DCT SUVAL/N0463F390 M736 MAG Z20 KENIG T959 KOJEC KOJEC1V |
| Aircraft | A346/H-SDE2E3FGHIJ3J4J5M1RWXY/LB1D1 |
Departure
| Time | 2026-04-24 12:44 |
|---|---|
| Airport | Helsinki Vantaa Airport (EFHK) |
Arrival
| Time | 2026-04-24 14:37 |
|---|---|
| Airport | Leipzig/Halle Airport (EDDP) |
| Time | Latitude | Longitude | Altitude | Speed | Heading |
|---|---|---|---|---|---|
| 2026-04-24 12:26 | 60.31315 | 24.94813 | 170 ft | 0 kts | 47° |
| 2026-04-24 12:34 | 60.31311 | 24.94804 | 170 ft | 2 kts | 49° |
| 2026-04-24 12:34 | 60.31295 | 24.94775 | 170 ft | 4 kts | 29° |
| 2026-04-24 12:34 | 60.31275 | 24.94762 | 170 ft | 4 kts | 357° |
| 2026-04-24 12:34 | 60.31253 | 24.94774 | 170 ft | 4 kts | 331° |
| 2026-04-24 12:35 | 60.31233 | 24.94803 | 170 ft | 2 kts | 319° |
| 2026-04-24 12:35 | 60.31231 | 24.94806 | 170 ft | 0 kts | 319° |
| 2026-04-24 12:38 | 60.31244 | 24.94783 | 170 ft | 8 kts | 319° |
| 2026-04-24 12:39 | 60.31435 | 24.94875 | 170 ft | 17 kts | 47° |
| 2026-04-24 12:39 | 60.31522 | 24.95066 | 170 ft | 21 kts | 47° |
| 2026-04-24 12:39 | 60.31638 | 24.95321 | 170 ft | 26 kts | 47° |
| 2026-04-24 12:40 | 60.31762 | 24.95594 | 171 ft | 27 kts | 47° |
| 2026-04-24 12:40 | 60.31892 | 24.95879 | 170 ft | 28 kts | 47° |
| 2026-04-24 12:40 | 60.31958 | 24.95962 | 170 ft | 12 kts | 342° |
| 2026-04-24 12:40 | 60.32052 | 24.95797 | 171 ft | 19 kts | 316° |
| 2026-04-24 12:41 | 60.32156 | 24.95608 | 170 ft | 21 kts | 318° |
| 2026-04-24 12:41 | 60.32228 | 24.95473 | 170 ft | 22 kts | 317° |
| 2026-04-24 12:41 | 60.32348 | 24.95275 | 170 ft | 23 kts | 333° |
| 2026-04-24 12:41 | 60.32501 | 24.95170 | 170 ft | 24 kts | 342° |
| 2026-04-24 12:42 | 60.32660 | 24.95067 | 169 ft | 24 kts | 342° |
| 2026-04-24 12:42 | 60.32807 | 24.94970 | 169 ft | 18 kts | 342° |
| 2026-04-24 12:42 | 60.32919 | 24.94873 | 170 ft | 17 kts | 322° |
| 2026-04-24 12:42 | 60.33004 | 24.94702 | 170 ft | 17 kts | 317° |
| 2026-04-24 12:43 | 60.33093 | 24.94546 | 174 ft | 15 kts | 317° |
| 2026-04-24 12:43 | 60.33111 | 24.94405 | 181 ft | 7 kts | 251° |
| 2026-04-24 12:43 | 60.33077 | 24.94312 | 183 ft | 18 kts | 228° |
| 2026-04-24 12:43 | 60.32842 | 24.93792 | 183 ft | 82 kts | 227° |
| 2026-04-24 12:44 | 60.32317 | 24.92634 | 169 ft | 139 kts | 227° |
| 2026-04-24 12:44 | 60.31549 | 24.90966 | 215 ft | 179 kts | 231° |
| 2026-04-24 12:44 | 60.30691 | 24.89164 | 819 ft | 176 kts | 231° |
| 2026-04-24 12:44 | 60.29822 | 24.87423 | 1436 ft | 178 kts | 231° |
| 2026-04-24 12:45 | 60.29112 | 24.85386 | 1782 ft | 180 kts | 259° |
| 2026-04-24 12:45 | 60.29071 | 24.82926 | 2120 ft | 177 kts | 293° |
| 2026-04-24 12:45 | 60.29626 | 24.80704 | 2540 ft | 181 kts | 302° |
| 2026-04-24 12:45 | 60.30067 | 24.78248 | 3002 ft | 195 kts | 281° |
| 2026-04-24 12:46 | 60.29844 | 24.75434 | 3484 ft | 211 kts | 256° |
| 2026-04-24 12:46 | 60.29295 | 24.72571 | 3893 ft | 229 kts | 253° |
| 2026-04-24 12:46 | 60.28679 | 24.69455 | 4268 ft | 248 kts | 253° |
| 2026-04-24 12:46 | 60.28018 | 24.66121 | 4774 ft | 262 kts | 252° |
| 2026-04-24 12:47 | 60.27328 | 24.62732 | 5487 ft | 265 kts | 251° |
| 2026-04-24 12:47 | 60.26618 | 24.59277 | 5904 ft | 268 kts | 252° |
| 2026-04-24 12:47 | 60.25894 | 24.55742 | 6512 ft | 275 kts | 252° |
| 2026-04-24 12:47 | 60.25162 | 24.52196 | 7478 ft | 273 kts | 252° |
| 2026-04-24 12:48 | 60.24411 | 24.48666 | 8372 ft | 276 kts | 251° |
| 2026-04-24 12:48 | 60.23526 | 24.45182 | 9181 ft | 282 kts | 248° |
| 2026-04-24 12:48 | 60.22585 | 24.41661 | 9968 ft | 287 kts | 248° |
| 2026-04-24 12:48 | 60.21616 | 24.38052 | 10529 ft | 300 kts | 249° |
| 2026-04-24 12:49 | 60.20598 | 24.34245 | 10937 ft | 318 kts | 248° |
| 2026-04-24 12:49 | 60.19519 | 24.30222 | 11308 ft | 336 kts | 248° |
| 2026-04-24 12:49 | 60.18377 | 24.25979 | 11668 ft | 354 kts | 248° |
| 2026-04-24 12:49 | 60.17172 | 24.21525 | 12032 ft | 371 kts | 248° |
| 2026-04-24 12:50 | 60.15916 | 24.16905 | 12639 ft | 380 kts | 248° |
| 2026-04-24 12:50 | 60.14637 | 24.12229 | 13456 ft | 383 kts | 248° |
| 2026-04-24 12:50 | 60.13344 | 24.07511 | 14200 ft | 386 kts | 248° |
| 2026-04-24 12:50 | 60.12033 | 24.02721 | 14898 ft | 390 kts | 248° |
| 2026-04-24 12:51 | 60.10718 | 23.97917 | 15591 ft | 394 kts | 248° |
| 2026-04-24 12:51 | 60.09389 | 23.93074 | 16251 ft | 398 kts | 248° |
| 2026-04-24 12:51 | 60.08049 | 23.88174 | 16947 ft | 401 kts | 248° |
| 2026-04-24 12:51 | 60.06737 | 23.83205 | 17615 ft | 404 kts | 249° |
| 2026-04-24 12:52 | 60.05429 | 23.78181 | 18268 ft | 408 kts | 249° |
| 2026-04-24 12:52 | 60.04108 | 23.73119 | 18849 ft | 412 kts | 249° |
| 2026-04-24 12:52 | 60.02770 | 23.68010 | 19462 ft | 414 kts | 249° |
| 2026-04-24 12:52 | 60.01424 | 23.62892 | 20081 ft | 417 kts | 249° |
| 2026-04-24 12:53 | 60.00056 | 23.57705 | 20697 ft | 420 kts | 249° |
| 2026-04-24 12:53 | 59.98685 | 23.52526 | 21294 ft | 423 kts | 249° |
| 2026-04-24 12:53 | 59.97304 | 23.47316 | 21904 ft | 426 kts | 249° |
| 2026-04-24 12:53 | 59.95906 | 23.42061 | 22486 ft | 429 kts | 249° |
| 2026-04-24 12:54 | 59.94499 | 23.36782 | 23073 ft | 432 kts | 249° |
| 2026-04-24 12:54 | 59.93081 | 23.31473 | 23600 ft | 435 kts | 248° |
| 2026-04-24 12:54 | 59.91648 | 23.26119 | 24075 ft | 438 kts | 248° |
| 2026-04-24 12:54 | 59.90202 | 23.20731 | 24525 ft | 441 kts | 248° |
| 2026-04-24 12:55 | 59.88746 | 23.15317 | 24984 ft | 444 kts | 248° |
| 2026-04-24 12:55 | 59.87276 | 23.09863 | 25418 ft | 447 kts | 248° |
| 2026-04-24 12:55 | 59.85797 | 23.04391 | 25886 ft | 450 kts | 248° |
| 2026-04-24 12:55 | 59.84307 | 22.98896 | 26350 ft | 453 kts | 247° |
| 2026-04-24 12:56 | 59.82805 | 22.93366 | 26760 ft | 456 kts | 247° |
| 2026-04-24 12:56 | 59.81290 | 22.87797 | 27228 ft | 458 kts | 246° |
| 2026-04-24 12:56 | 59.79761 | 22.82210 | 27697 ft | 461 kts | 246° |
| 2026-04-24 12:56 | 59.78223 | 22.76601 | 28142 ft | 463 kts | 246° |
| 2026-04-24 12:57 | 59.76680 | 22.70982 | 28752 ft | 462 kts | 246° |
| 2026-04-24 12:57 | 59.75143 | 22.65398 | 29410 ft | 460 kts | 246° |
| 2026-04-24 12:57 | 59.73607 | 22.59830 | 30025 ft | 459 kts | 246° |
| 2026-04-24 12:57 | 59.72072 | 22.54279 | 30529 ft | 458 kts | 246° |
| 2026-04-24 12:58 | 59.70538 | 22.48746 | 31014 ft | 457 kts | 246° |
| 2026-04-24 12:58 | 59.69003 | 22.43223 | 31499 ft | 457 kts | 246° |
| 2026-04-24 12:58 | 59.67468 | 22.37713 | 31981 ft | 456 kts | 246° |
| 2026-04-24 12:58 | 59.65951 | 22.32278 | 32454 ft | 456 kts | 245° |
| 2026-04-24 12:59 | 59.64415 | 22.26786 | 32928 ft | 455 kts | 245° |
| 2026-04-24 12:59 | 59.62879 | 22.21310 | 33409 ft | 455 kts | 245° |
| 2026-04-24 12:59 | 59.61345 | 22.15853 | 33871 ft | 454 kts | 245° |
| 2026-04-24 12:59 | 59.59803 | 22.10383 | 34245 ft | 454 kts | 245° |
| 2026-04-24 13:00 | 59.58265 | 22.04936 | 34604 ft | 454 kts | 245° |
| 2026-04-24 13:00 | 59.56826 | 21.99852 | 34904 ft | 455 kts | 245° |
| 2026-04-24 13:00 | 59.55281 | 21.94394 | 35229 ft | 455 kts | 245° |
| 2026-04-24 13:00 | 59.53733 | 21.88944 | 35574 ft | 454 kts | 245° |
| 2026-04-24 13:01 | 59.52180 | 21.83505 | 35900 ft | 454 kts | 245° |
| 2026-04-24 13:01 | 59.50624 | 21.78064 | 36168 ft | 455 kts | 244° |
| 2026-04-24 13:01 | 59.49069 | 21.72625 | 36434 ft | 456 kts | 244° |
| 2026-04-24 13:01 | 59.47504 | 21.67181 | 36690 ft | 457 kts | 244° |
| 2026-04-24 13:02 | 59.45932 | 21.61732 | 36910 ft | 458 kts | 244° |
| 2026-04-24 13:02 | 59.44353 | 21.56266 | 37105 ft | 460 kts | 244° |
| 2026-04-24 13:02 | 59.42761 | 21.50757 | 37315 ft | 461 kts | 244° |
| 2026-04-24 13:02 | 59.41169 | 21.45257 | 37525 ft | 463 kts | 244° |
| 2026-04-24 13:03 | 59.39591 | 21.39818 | 37724 ft | 464 kts | 244° |
| 2026-04-24 13:03 | 59.37988 | 21.34305 | 37877 ft | 465 kts | 244° |
| 2026-04-24 13:03 | 59.36355 | 21.28703 | 37879 ft | 466 kts | 244° |
| 2026-04-24 13:04 | 59.33145 | 21.17733 | 37886 ft | 466 kts | 244° |
| 2026-04-24 13:04 | 59.29909 | 21.06720 | 37881 ft | 464 kts | 243° |
| 2026-04-24 13:05 | 59.26681 | 20.95797 | 37906 ft | 462 kts | 243° |
| 2026-04-24 13:05 | 59.23451 | 20.84924 | 37901 ft | 462 kts | 243° |
| 2026-04-24 13:06 | 59.20033 | 20.74254 | 37904 ft | 464 kts | 238° |
| 2026-04-24 13:06 | 59.16034 | 20.64310 | 37914 ft | 467 kts | 232° |
| 2026-04-24 13:07 | 59.11470 | 20.55219 | 37881 ft | 470 kts | 226° |
| 2026-04-24 13:07 | 59.06677 | 20.46510 | 37914 ft | 470 kts | 227° |
| 2026-04-24 13:08 | 59.01893 | 20.37806 | 37917 ft | 470 kts | 227° |
| 2026-04-24 13:08 | 58.97093 | 20.29115 | 37919 ft | 470 kts | 226° |
| 2026-04-24 13:09 | 58.89893 | 20.16151 | 37931 ft | 470 kts | 226° |
| 2026-04-24 13:09 | 58.85090 | 20.07549 | 37923 ft | 470 kts | 226° |
| 2026-04-24 13:10 | 58.80281 | 19.98967 | 37929 ft | 470 kts | 226° |
| 2026-04-24 13:10 | 58.75471 | 19.90418 | 37923 ft | 469 kts | 226° |
| 2026-04-24 13:11 | 58.70673 | 19.81924 | 37937 ft | 468 kts | 226° |
| 2026-04-24 13:11 | 58.65874 | 19.73463 | 37936 ft | 468 kts | 226° |
| 2026-04-24 13:12 | 58.61075 | 19.65038 | 37935 ft | 466 kts | 226° |
| 2026-04-24 13:12 | 58.56313 | 19.56706 | 37941 ft | 466 kts | 226° |
| 2026-04-24 13:13 | 58.51513 | 19.48339 | 37948 ft | 466 kts | 226° |
| 2026-04-24 13:13 | 58.46696 | 19.39975 | 37947 ft | 466 kts | 226° |
| 2026-04-24 13:14 | 58.41886 | 19.31656 | 37923 ft | 466 kts | 226° |
| 2026-04-24 13:14 | 58.37061 | 19.23345 | 37949 ft | 467 kts | 226° |
| 2026-04-24 13:15 | 58.32221 | 19.15039 | 37949 ft | 467 kts | 226° |
| 2026-04-24 13:15 | 58.27383 | 19.06768 | 37955 ft | 467 kts | 226° |
| 2026-04-24 13:16 | 58.22537 | 18.98516 | 37953 ft | 468 kts | 226° |
| 2026-04-24 13:16 | 58.17680 | 18.90281 | 37933 ft | 468 kts | 226° |
| 2026-04-24 13:17 | 58.12794 | 18.82026 | 37948 ft | 469 kts | 226° |
| 2026-04-24 13:17 | 58.07942 | 18.73852 | 37958 ft | 470 kts | 226° |
| 2026-04-24 13:18 | 58.03050 | 18.65650 | 37951 ft | 469 kts | 226° |
| 2026-04-24 13:18 | 57.98171 | 18.57499 | 37965 ft | 468 kts | 226° |
| 2026-04-24 13:19 | 57.93286 | 18.49373 | 37952 ft | 467 kts | 226° |
| 2026-04-24 13:19 | 57.88410 | 18.41285 | 37961 ft | 466 kts | 226° |
| 2026-04-24 13:20 | 57.84363 | 18.34594 | 37961 ft | 466 kts | 226° |
| 2026-04-24 13:20 | 57.79489 | 18.26564 | 37961 ft | 466 kts | 226° |
| 2026-04-24 13:21 | 57.74607 | 18.18553 | 37962 ft | 466 kts | 226° |
| 2026-04-24 13:21 | 57.69719 | 18.10574 | 37960 ft | 463 kts | 226° |
| 2026-04-24 13:22 | 57.64867 | 18.02672 | 37971 ft | 462 kts | 226° |
| 2026-04-24 13:22 | 57.60010 | 17.94786 | 37974 ft | 462 kts | 226° |
| 2026-04-24 13:23 | 57.55154 | 17.86932 | 37977 ft | 462 kts | 226° |
| 2026-04-24 13:23 | 57.50291 | 17.79099 | 37972 ft | 462 kts | 226° |
| 2026-04-24 13:24 | 57.45420 | 17.71283 | 37967 ft | 462 kts | 226° |
| 2026-04-24 13:24 | 57.40543 | 17.63484 | 37975 ft | 462 kts | 226° |
| 2026-04-24 13:25 | 57.35665 | 17.55713 | 37975 ft | 462 kts | 226° |
| 2026-04-24 13:25 | 57.30775 | 17.47952 | 37971 ft | 462 kts | 226° |
| 2026-04-24 13:26 | 57.25886 | 17.40221 | 37950 ft | 462 kts | 226° |
| 2026-04-24 13:26 | 57.21010 | 17.32543 | 37968 ft | 459 kts | 226° |
| 2026-04-24 13:27 | 57.16145 | 17.24901 | 37972 ft | 459 kts | 226° |
| 2026-04-24 13:27 | 57.11271 | 17.17274 | 37976 ft | 459 kts | 226° |
| 2026-04-24 13:28 | 57.06392 | 17.09667 | 37977 ft | 459 kts | 226° |
| 2026-04-24 13:28 | 57.01503 | 17.02075 | 37960 ft | 458 kts | 226° |
| 2026-04-24 13:29 | 56.96632 | 16.94536 | 37977 ft | 458 kts | 226° |
| 2026-04-24 13:29 | 56.91754 | 16.87010 | 37979 ft | 458 kts | 226° |
| 2026-04-24 13:30 | 56.86875 | 16.79511 | 37982 ft | 458 kts | 226° |
| 2026-04-24 13:30 | 56.82029 | 16.72088 | 37983 ft | 458 kts | 225° |
| 2026-04-24 13:31 | 56.77102 | 16.64574 | 37969 ft | 458 kts | 226° |
| 2026-04-24 13:31 | 56.72208 | 16.57129 | 37980 ft | 458 kts | 226° |
| 2026-04-24 13:32 | 56.67332 | 16.49738 | 37983 ft | 458 kts | 226° |
| 2026-04-24 13:32 | 56.62443 | 16.42347 | 37990 ft | 455 kts | 225° |
| 2026-04-24 13:33 | 56.57564 | 16.35008 | 37978 ft | 455 kts | 225° |
| 2026-04-24 13:33 | 56.52666 | 16.27670 | 37979 ft | 457 kts | 225° |
| 2026-04-24 13:34 | 56.47723 | 16.20278 | 37983 ft | 458 kts | 225° |
| 2026-04-24 13:34 | 56.42798 | 16.12941 | 37984 ft | 458 kts | 225° |
| 2026-04-24 13:35 | 56.37873 | 16.05632 | 37978 ft | 458 kts | 225° |
| 2026-04-24 13:35 | 56.32942 | 15.98339 | 37950 ft | 459 kts | 225° |
| 2026-04-24 13:36 | 56.27956 | 15.90985 | 37977 ft | 462 kts | 225° |
| 2026-04-24 13:36 | 56.22973 | 15.83669 | 37990 ft | 462 kts | 225° |
| 2026-04-24 13:37 | 56.17985 | 15.76368 | 37982 ft | 462 kts | 225° |
| 2026-04-24 13:37 | 56.13026 | 15.69135 | 37987 ft | 462 kts | 225° |
| 2026-04-24 13:38 | 56.08023 | 15.61862 | 37972 ft | 464 kts | 225° |
| 2026-04-24 13:38 | 56.02994 | 15.54576 | 37983 ft | 465 kts | 225° |
| 2026-04-24 13:39 | 55.97958 | 15.47306 | 37983 ft | 465 kts | 225° |
| 2026-04-24 13:39 | 55.92911 | 15.40054 | 37981 ft | 464 kts | 225° |
| 2026-04-24 13:40 | 55.87869 | 15.32820 | 37953 ft | 464 kts | 225° |
| 2026-04-24 13:40 | 55.82830 | 15.25617 | 37974 ft | 465 kts | 225° |
| 2026-04-24 13:41 | 55.77766 | 15.18405 | 37977 ft | 465 kts | 225° |
| 2026-04-24 13:41 | 55.72712 | 15.11234 | 37977 ft | 465 kts | 225° |
| 2026-04-24 13:42 | 55.67656 | 15.04084 | 37980 ft | 465 kts | 225° |
| 2026-04-24 13:42 | 55.62599 | 14.96958 | 37966 ft | 464 kts | 225° |
| 2026-04-24 13:43 | 55.57539 | 14.89851 | 37978 ft | 464 kts | 225° |
| 2026-04-24 13:43 | 55.52475 | 14.82759 | 37975 ft | 464 kts | 225° |
| 2026-04-24 13:44 | 55.47411 | 14.75695 | 37985 ft | 464 kts | 225° |
| 2026-04-24 13:44 | 55.42337 | 14.68639 | 37980 ft | 464 kts | 225° |
| 2026-04-24 13:45 | 55.37261 | 14.61612 | 37991 ft | 464 kts | 225° |
| 2026-04-24 13:45 | 55.32185 | 14.54598 | 37991 ft | 464 kts | 225° |
| 2026-04-24 13:46 | 55.27107 | 14.47606 | 37996 ft | 463 kts | 225° |
| 2026-04-24 13:46 | 55.22042 | 14.40657 | 37997 ft | 461 kts | 225° |
| 2026-04-24 13:47 | 55.16986 | 14.33743 | 37997 ft | 461 kts | 225° |
| 2026-04-24 13:47 | 55.11912 | 14.26826 | 37998 ft | 461 kts | 224° |
| 2026-04-24 13:48 | 55.06835 | 14.19929 | 37994 ft | 461 kts | 224° |
| 2026-04-24 13:48 | 55.01759 | 14.13056 | 37993 ft | 461 kts | 224° |
| 2026-04-24 13:49 | 54.96686 | 14.06212 | 37959 ft | 461 kts | 224° |
| 2026-04-24 13:49 | 54.91514 | 13.99600 | 37995 ft | 463 kts | 220° |
| 2026-04-24 13:50 | 54.85951 | 13.93825 | 38010 ft | 467 kts | 217° |
| 2026-04-24 13:50 | 54.80300 | 13.88240 | 38009 ft | 466 kts | 217° |
| 2026-04-24 13:51 | 54.74655 | 13.82670 | 38015 ft | 467 kts | 217° |
| 2026-04-24 13:51 | 54.69053 | 13.77167 | 38003 ft | 465 kts | 217° |
| 2026-04-24 13:52 | 54.63425 | 13.71657 | 38024 ft | 464 kts | 217° |
| 2026-04-24 13:52 | 54.57797 | 13.66165 | 38039 ft | 464 kts | 217° |
| 2026-04-24 13:53 | 54.52164 | 13.60687 | 38040 ft | 464 kts | 217° |
| 2026-04-24 13:53 | 54.46536 | 13.55229 | 38025 ft | 463 kts | 216° |
| 2026-04-24 13:54 | 54.40907 | 13.49791 | 38038 ft | 462 kts | 216° |
| 2026-04-24 13:54 | 54.35293 | 13.44385 | 38042 ft | 462 kts | 216° |
| 2026-04-24 13:55 | 54.29681 | 13.38995 | 38039 ft | 461 kts | 216° |
| 2026-04-24 13:55 | 54.24086 | 13.33637 | 38036 ft | 460 kts | 216° |
| 2026-04-24 13:56 | 54.19426 | 13.29190 | 38048 ft | 460 kts | 216° |
| 2026-04-24 13:56 | 54.13832 | 13.23869 | 38050 ft | 460 kts | 216° |
| 2026-04-24 13:57 | 54.08232 | 13.18558 | 38056 ft | 460 kts | 216° |
| 2026-04-24 13:57 | 54.02635 | 13.13264 | 38033 ft | 460 kts | 216° |
| 2026-04-24 13:58 | 53.97044 | 13.07991 | 38054 ft | 460 kts | 216° |
| 2026-04-24 13:58 | 53.91446 | 13.02731 | 38056 ft | 460 kts | 216° |
| 2026-04-24 13:59 | 53.85842 | 12.97480 | 38055 ft | 460 kts | 215° |
| 2026-04-24 13:59 | 53.80241 | 12.92249 | 38060 ft | 460 kts | 215° |
| 2026-04-24 14:00 | 53.74624 | 12.87016 | 38056 ft | 460 kts | 215° |
| 2026-04-24 14:00 | 53.69007 | 12.81803 | 38063 ft | 460 kts | 215° |
| 2026-04-24 14:01 | 53.63391 | 12.76606 | 38064 ft | 460 kts | 215° |
| 2026-04-24 14:01 | 53.57800 | 12.71447 | 38064 ft | 460 kts | 215° |
| 2026-04-24 14:02 | 53.52173 | 12.66267 | 38067 ft | 461 kts | 215° |
| 2026-04-24 14:02 | 53.46499 | 12.61065 | 38073 ft | 461 kts | 215° |
| 2026-04-24 14:03 | 53.40859 | 12.55909 | 38074 ft | 461 kts | 214° |
| 2026-04-24 14:03 | 53.35216 | 12.50766 | 38074 ft | 461 kts | 214° |
| 2026-04-24 14:04 | 53.29566 | 12.45627 | 38073 ft | 462 kts | 214° |
| 2026-04-24 14:04 | 53.23910 | 12.40505 | 38084 ft | 462 kts | 214° |
| 2026-04-24 14:05 | 53.18236 | 12.35382 | 38085 ft | 462 kts | 214° |
| 2026-04-24 14:05 | 53.12550 | 12.30261 | 38092 ft | 461 kts | 214° |
| 2026-04-24 14:06 | 53.06908 | 12.25195 | 38086 ft | 459 kts | 214° |
| 2026-04-24 14:06 | 53.01265 | 12.20146 | 38093 ft | 459 kts | 214° |
| 2026-04-24 14:07 | 52.95637 | 12.15124 | 38097 ft | 459 kts | 214° |
| 2026-04-24 14:07 | 52.90005 | 12.10112 | 38105 ft | 459 kts | 214° |
| 2026-04-24 14:08 | 52.84404 | 12.05144 | 38105 ft | 459 kts | 214° |
| 2026-04-24 14:08 | 52.78721 | 12.00280 | 38110 ft | 462 kts | 210° |
| 2026-04-24 14:09 | 52.72695 | 11.96235 | 38112 ft | 465 kts | 206° |
| 2026-04-24 14:09 | 52.66586 | 11.92684 | 38021 ft | 465 kts | 202° |
| 2026-04-24 14:10 | 52.63455 | 11.91283 | 37383 ft | 469 kts | 199° |
| 2026-04-24 14:10 | 52.60220 | 11.90163 | 36489 ft | 477 kts | 195° |
| 2026-04-24 14:10 | 52.56915 | 11.89355 | 35686 ft | 483 kts | 192° |
| 2026-04-24 14:10 | 52.53601 | 11.88788 | 34999 ft | 485 kts | 191° |
| 2026-04-24 14:11 | 52.50230 | 11.88207 | 34318 ft | 486 kts | 192° |
| 2026-04-24 14:11 | 52.46857 | 11.87614 | 33546 ft | 487 kts | 191° |
| 2026-04-24 14:11 | 52.40078 | 11.86413 | 31874 ft | 492 kts | 191° |
| 2026-04-24 14:12 | 52.36666 | 11.85813 | 31133 ft | 494 kts | 190° |
| 2026-04-24 14:12 | 52.33244 | 11.85217 | 30457 ft | 494 kts | 190° |
| 2026-04-24 14:12 | 52.29820 | 11.84624 | 29711 ft | 494 kts | 190° |
| 2026-04-24 14:12 | 52.26401 | 11.84035 | 28998 ft | 493 kts | 190° |
| 2026-04-24 14:13 | 52.23000 | 11.83448 | 28296 ft | 491 kts | 190° |
| 2026-04-24 14:13 | 52.19605 | 11.82862 | 27652 ft | 489 kts | 189° |
| 2026-04-24 14:13 | 52.16242 | 11.82284 | 27146 ft | 483 kts | 189° |
| 2026-04-24 14:13 | 52.12915 | 11.81712 | 26673 ft | 478 kts | 189° |
| 2026-04-24 14:14 | 52.09587 | 11.81143 | 26233 ft | 472 kts | 189° |
| 2026-04-24 14:14 | 52.06336 | 11.80587 | 25807 ft | 467 kts | 189° |
| 2026-04-24 14:14 | 52.00080 | 11.78521 | 24936 ft | 450 kts | 206° |
| 2026-04-24 14:15 | 51.97353 | 11.76174 | 24517 ft | 440 kts | 218° |
| 2026-04-24 14:15 | 51.94972 | 11.73118 | 24098 ft | 433 kts | 225° |
| 2026-04-24 14:15 | 51.92722 | 11.69894 | 23646 ft | 430 kts | 225° |
| 2026-04-24 14:15 | 51.90495 | 11.66674 | 23183 ft | 426 kts | 225° |
| 2026-04-24 14:16 | 51.88284 | 11.63503 | 22753 ft | 423 kts | 225° |
| 2026-04-24 14:16 | 51.86085 | 11.60376 | 22330 ft | 419 kts | 225° |
| 2026-04-24 14:16 | 51.83896 | 11.57278 | 21918 ft | 415 kts | 224° |
| 2026-04-24 14:17 | 51.79590 | 11.51192 | 21107 ft | 409 kts | 224° |
| 2026-04-24 14:17 | 51.77432 | 11.48147 | 20694 ft | 406 kts | 224° |
| 2026-04-24 14:17 | 51.73204 | 11.42195 | 19887 ft | 401 kts | 224° |
| 2026-04-24 14:18 | 51.71107 | 11.39248 | 19473 ft | 398 kts | 224° |
| 2026-04-24 14:18 | 51.69013 | 11.36326 | 19078 ft | 397 kts | 222° |
| 2026-04-24 14:18 | 51.66640 | 11.34040 | 18654 ft | 402 kts | 204° |
| 2026-04-24 14:18 | 51.63904 | 11.33099 | 18210 ft | 406 kts | 185° |
| 2026-04-24 14:19 | 51.62033 | 11.33268 | 17907 ft | 407 kts | 172° |
| 2026-04-24 14:19 | 51.58528 | 11.35485 | 17317 ft | 408 kts | 146° |
| 2026-04-24 14:19 | 51.56448 | 11.38589 | 16896 ft | 406 kts | 128° |
| 2026-04-24 14:19 | 51.54805 | 11.42263 | 16520 ft | 403 kts | 124° |
| 2026-04-24 14:20 | 51.53218 | 11.45963 | 16130 ft | 401 kts | 122° |
| 2026-04-24 14:20 | 51.51998 | 11.49957 | 15709 ft | 397 kts | 106° |
| 2026-04-24 14:20 | 51.51488 | 11.54276 | 15303 ft | 391 kts | 90° |
| 2026-04-24 14:20 | 51.51599 | 11.58611 | 14906 ft | 387 kts | 82° |
| 2026-04-24 14:21 | 51.51859 | 11.62909 | 14539 ft | 385 kts | 81° |
| 2026-04-24 14:21 | 51.52121 | 11.67183 | 14144 ft | 384 kts | 82° |
| 2026-04-24 14:21 | 51.52362 | 11.71448 | 13726 ft | 382 kts | 82° |
| 2026-04-24 14:21 | 51.52586 | 11.75700 | 13299 ft | 380 kts | 82° |
| 2026-04-24 14:22 | 51.52800 | 11.79920 | 12897 ft | 377 kts | 82° |
| 2026-04-24 14:22 | 51.53008 | 11.84060 | 12504 ft | 375 kts | 82° |
| 2026-04-24 14:22 | 51.53418 | 11.92360 | 11708 ft | 369 kts | 82° |
| 2026-04-24 14:23 | 51.53620 | 11.96471 | 11324 ft | 367 kts | 82° |
| 2026-04-24 14:23 | 51.53819 | 12.00542 | 10938 ft | 364 kts | 82° |
| 2026-04-24 14:23 | 51.54012 | 12.04554 | 10812 ft | 351 kts | 82° |
| 2026-04-24 14:23 | 51.54195 | 12.08402 | 10714 ft | 338 kts | 82° |
| 2026-04-24 14:24 | 51.54370 | 12.12110 | 10627 ft | 326 kts | 81° |
| 2026-04-24 14:24 | 51.54537 | 12.15681 | 10514 ft | 315 kts | 81° |
| 2026-04-24 14:24 | 51.54698 | 12.19130 | 10426 ft | 303 kts | 81° |
| 2026-04-24 14:24 | 51.54853 | 12.22447 | 10338 ft | 292 kts | 81° |
| 2026-04-24 14:25 | 51.54953 | 12.24603 | 10280 ft | 286 kts | 80° |
| 2026-04-24 14:25 | 51.55151 | 12.28835 | 10166 ft | 281 kts | 80° |
| 2026-04-24 14:25 | 51.55299 | 12.31978 | 9850 ft | 282 kts | 80° |
| 2026-04-24 14:25 | 51.55446 | 12.35125 | 9520 ft | 281 kts | 81° |
| 2026-04-24 14:26 | 51.55590 | 12.38255 | 9218 ft | 280 kts | 81° |
| 2026-04-24 14:26 | 51.55732 | 12.41381 | 8923 ft | 279 kts | 81° |
| 2026-04-24 14:26 | 51.55871 | 12.44486 | 8633 ft | 277 kts | 81° |
| 2026-04-24 14:26 | 51.56009 | 12.47579 | 8340 ft | 276 kts | 81° |
| 2026-04-24 14:27 | 51.56145 | 12.50653 | 8060 ft | 275 kts | 82° |
| 2026-04-24 14:27 | 51.56280 | 12.53715 | 7773 ft | 274 kts | 82° |
| 2026-04-24 14:27 | 51.56415 | 12.56773 | 7488 ft | 273 kts | 82° |
| 2026-04-24 14:27 | 51.56548 | 12.59812 | 7208 ft | 272 kts | 82° |
| 2026-04-24 14:28 | 51.56682 | 12.62902 | 6948 ft | 279 kts | 82° |
| 2026-04-24 14:28 | 51.56817 | 12.66023 | 6644 ft | 279 kts | 83° |
| 2026-04-24 14:28 | 51.56949 | 12.69132 | 6339 ft | 278 kts | 83° |
| 2026-04-24 14:28 | 51.57076 | 12.72229 | 6034 ft | 276 kts | 85° |
| 2026-04-24 14:29 | 51.56760 | 12.75275 | 5689 ft | 281 kts | 115° |
| 2026-04-24 14:29 | 51.55524 | 12.77667 | 5395 ft | 281 kts | 146° |
| 2026-04-24 14:29 | 51.53729 | 12.78778 | 5095 ft | 277 kts | 175° |
| 2026-04-24 14:29 | 51.51821 | 12.78973 | 4829 ft | 274 kts | 179° |
| 2026-04-24 14:30 | 51.50560 | 12.79057 | 4630 ft | 273 kts | 180° |
| 2026-04-24 14:30 | 51.48036 | 12.79052 | 4213 ft | 269 kts | 197° |
| 2026-04-24 14:30 | 51.46438 | 12.77657 | 3995 ft | 261 kts | 230° |
| 2026-04-24 14:30 | 51.45534 | 12.75212 | 4003 ft | 250 kts | 259° |
| 2026-04-24 14:31 | 51.45338 | 12.72552 | 4004 ft | 234 kts | 270° |
| 2026-04-24 14:31 | 51.45250 | 12.69964 | 3998 ft | 231 kts | 270° |
| 2026-04-24 14:31 | 51.45156 | 12.67413 | 3992 ft | 227 kts | 270° |
| 2026-04-24 14:31 | 51.45057 | 12.64890 | 3998 ft | 225 kts | 270° |
| 2026-04-24 14:32 | 51.44953 | 12.62410 | 3829 ft | 222 kts | 270° |
| 2026-04-24 14:32 | 51.44892 | 12.60768 | 3613 ft | 223 kts | 270° |
| 2026-04-24 14:32 | 51.44814 | 12.57471 | 3303 ft | 218 kts | 270° |
| 2026-04-24 14:32 | 51.44763 | 12.55870 | 3173 ft | 215 kts | 269° |
| 2026-04-24 14:33 | 51.44666 | 12.53503 | 3011 ft | 207 kts | 268° |
| 2026-04-24 14:33 | 51.44556 | 12.51275 | 2995 ft | 194 kts | 268° |
| 2026-04-24 14:33 | 51.44450 | 12.49210 | 3003 ft | 176 kts | 268° |
| 2026-04-24 14:33 | 51.44354 | 12.47331 | 3005 ft | 164 kts | 268° |
| 2026-04-24 14:34 | 51.44264 | 12.45517 | 2855 ft | 163 kts | 268° |
| 2026-04-24 14:34 | 51.44177 | 12.43734 | 2619 ft | 156 kts | 267° |
| 2026-04-24 14:34 | 51.44092 | 12.42029 | 2393 ft | 151 kts | 267° |
| 2026-04-24 14:34 | 51.44010 | 12.40367 | 2197 ft | 149 kts | 268° |
| 2026-04-24 14:35 | 51.43929 | 12.38719 | 2015 ft | 148 kts | 268° |
| 2026-04-24 14:35 | 51.43851 | 12.37080 | 1786 ft | 147 kts | 268° |
| 2026-04-24 14:35 | 51.43771 | 12.35461 | 1575 ft | 145 kts | 268° |
| 2026-04-24 14:35 | 51.43683 | 12.33863 | 1366 ft | 144 kts | 268° |
| 2026-04-24 14:36 | 51.43611 | 12.32252 | 1169 ft | 145 kts | 268° |
| 2026-04-24 14:36 | 51.43544 | 12.30618 | 1003 ft | 145 kts | 268° |
| 2026-04-24 14:36 | 51.43480 | 12.29000 | 776 ft | 147 kts | 268° |
| 2026-04-24 14:36 | 51.43400 | 12.27352 | 572 ft | 148 kts | 268° |
| 2026-04-24 14:37 | 51.43322 | 12.25748 | 460 ft | 135 kts | 265° |
| 2026-04-24 14:37 | 51.43263 | 12.24530 | 456 ft | 82 kts | 265° |
| 2026-04-24 14:37 | 51.43234 | 12.23886 | 455 ft | 35 kts | 265° |
| 2026-04-24 14:37 | 51.43218 | 12.23546 | 458 ft | 29 kts | 266° |
| 2026-04-24 14:38 | 51.43203 | 12.23223 | 457 ft | 28 kts | 263° |
| 2026-04-24 14:38 | 51.43144 | 12.22917 | 448 ft | 29 kts | 241° |
| 2026-04-24 14:38 | 51.43057 | 12.22697 | 433 ft | 19 kts | 235° |
| 2026-04-24 14:38 | 51.42978 | 12.22591 | 447 ft | 12 kts | 198° |
| 2026-04-24 14:39 | 51.42910 | 12.22576 | 447 ft | 9 kts | 173° |
| 2026-04-24 14:39 | 51.42870 | 12.22656 | 448 ft | 11 kts | 98° |
| 2026-04-24 14:39 | 51.42871 | 12.22798 | 448 ft | 14 kts | 86° |
| 2026-04-24 14:39 | 51.42879 | 12.22979 | 436 ft | 18 kts | 86° |
| 2026-04-24 14:40 | 51.42888 | 12.23193 | 448 ft | 20 kts | 85° |
| 2026-04-24 14:40 | 51.42901 | 12.23436 | 447 ft | 23 kts | 85° |
| 2026-04-24 14:40 | 51.42914 | 12.23699 | 450 ft | 24 kts | 86° |
| 2026-04-24 14:40 | 51.42927 | 12.23977 | 452 ft | 26 kts | 86° |
| 2026-04-24 14:41 | 51.42940 | 12.24274 | 454 ft | 27 kts | 86° |
| 2026-04-24 14:41 | 51.42954 | 12.24574 | 456 ft | 23 kts | 85° |
| 2026-04-24 14:41 | 51.42967 | 12.24843 | 457 ft | 23 kts | 85° |
| 2026-04-24 14:41 | 51.42974 | 12.25024 | 459 ft | 13 kts | 100° |
| 2026-04-24 14:42 | 51.42890 | 12.25074 | 459 ft | 19 kts | 193° |
| 2026-04-24 14:42 | 51.42764 | 12.25020 | 466 ft | 19 kts | 193° |
| 2026-04-24 14:42 | 51.42615 | 12.24963 | 473 ft | 30 kts | 194° |
| 2026-04-24 14:42 | 51.42431 | 12.24892 | 477 ft | 26 kts | 193° |
| 2026-04-24 14:43 | 51.42263 | 12.24828 | 485 ft | 24 kts | 193° |
| 2026-04-24 14:43 | 51.42097 | 12.24765 | 491 ft | 24 kts | 193° |
| 2026-04-24 14:43 | 51.41954 | 12.24710 | 491 ft | 20 kts | 193° |
| 2026-04-24 14:43 | 51.41799 | 12.24650 | 482 ft | 26 kts | 193° |
| 2026-04-24 14:44 | 51.41618 | 12.24580 | 476 ft | 26 kts | 193° |
| 2026-04-24 14:44 | 51.41453 | 12.24516 | 477 ft | 24 kts | 194° |
| 2026-04-24 14:44 | 51.41287 | 12.24453 | 473 ft | 17 kts | 193° |
| 2026-04-24 14:44 | 51.41190 | 12.24402 | 471 ft | 13 kts | 223° |
| 2026-04-24 14:45 | 51.41162 | 12.24230 | 473 ft | 18 kts | 267° |
| 2026-04-24 14:45 | 51.41156 | 12.24038 | 476 ft | 12 kts | 266° |
| 2026-04-24 14:45 | 51.41149 | 12.23896 | 472 ft | 14 kts | 265° |
| 2026-04-24 14:45 | 51.41140 | 12.23727 | 474 ft | 17 kts | 265° |
| 2026-04-24 14:46 | 51.41131 | 12.23525 | 473 ft | 19 kts | 266° |
| 2026-04-24 14:46 | 51.41121 | 12.23299 | 474 ft | 22 kts | 266° |
| 2026-04-24 14:46 | 51.41109 | 12.23035 | 474 ft | 25 kts | 265° |
| 2026-04-24 14:46 | 51.41095 | 12.22766 | 468 ft | 24 kts | 265° |
| 2026-04-24 14:47 | 51.41082 | 12.22480 | 464 ft | 27 kts | 266° |
| 2026-04-24 14:47 | 51.41070 | 12.22192 | 465 ft | 25 kts | 266° |
| 2026-04-24 14:47 | 51.41057 | 12.21913 | 465 ft | 25 kts | 265° |
| 2026-04-24 14:47 | 51.41043 | 12.21625 | 465 ft | 25 kts | 265° |
| 2026-04-24 14:48 | 51.41030 | 12.21354 | 460 ft | 25 kts | 266° |
| 2026-04-24 14:48 | 51.41020 | 12.21112 | 454 ft | 22 kts | 265° |
| 2026-04-24 14:48 | 51.41006 | 12.20843 | 448 ft | 26 kts | 265° |
| 2026-04-24 14:48 | 51.40994 | 12.20589 | 435 ft | 18 kts | 265° |
| 2026-04-24 14:49 | 51.40961 | 12.20454 | 428 ft | 10 kts | 225° |
| 2026-04-24 14:49 | 51.40931 | 12.20375 | 446 ft | 5 kts | 253° |
| 2026-04-24 14:49 | 51.40911 | 12.20339 | 446 ft | 6 kts | 198° |
| 2026-04-24 14:49 | 51.40872 | 12.20338 | 446 ft | 5 kts | 176° |
| 2026-04-24 14:50 | 51.40843 | 12.20341 | 447 ft | 3 kts | 175° |
| 2026-04-24 14:50 | 51.40827 | 12.20344 | 447 ft | 0 kts | 174° |
| 2026-04-24 14:50 | 51.40826 | 12.20344 | 447 ft | 0 kts | 174° |
| 2026-04-24 14:50 | 51.40825 | 12.20344 | 447 ft | 0 kts | 175° |